Time;durP1;ratioP1;P1;durP2;ratioP2;P2;SDS_P1;SDS_P2;PMS_P1;PMS_P2;Temp;Humidity;BMP_temperature;BMP_pressure;BME280_temperature;BME280_humidity;BME280_pressure;Samples;Min_cycle;Max_cycle;Signal;HPM_P1;HPM_P2
2023/10/25 00:00:36;;;;;;;1.73;1.63;;;7.90;99.90;;;;;;469012;253;28043;-71
2023/10/25 00:02:38;;;;;;;1.93;1.50;;;7.90;99.90;;;;;;469008;253;28197;-70
2023/10/25 00:04:39;;;;;;;1.93;1.70;;;7.90;99.90;;;;;;469020;253;28097;-71
2023/10/25 00:06:40;;;;;;;1.77;1.63;;;7.90;99.90;;;;;;468950;253;28515;-75
2023/10/25 00:08:41;;;;;;;2.30;1.50;;;7.90;99.90;;;;;;468797;253;28484;-73
2023/10/25 00:10:43;;;;;;;2.57;1.80;;;7.90;99.90;;;;;;468876;253;28025;-73
2023/10/25 00:12:44;;;;;;;1.83;1.57;;;7.80;99.90;;;;;;468933;253;28106;-73
2023/10/25 00:14:45;;;;;;;2.10;1.70;;;7.70;99.90;;;;;;468924;253;27965;-74
2023/10/25 00:16:46;;;;;;;1.50;1.40;;;7.70;99.90;;;;;;468921;253;28127;-73
2023/10/25 00:18:48;;;;;;;2.17;1.90;;;7.70;99.90;;;;;;468864;253;27503;-75
2023/10/25 00:20:49;;;;;;;2.47;1.90;;;7.60;99.90;;;;;;468888;253;27931;-73
2023/10/25 00:22:50;;;;;;;2.63;1.70;;;7.60;99.90;;;;;;468871;253;28483;-75
2023/10/25 00:24:51;;;;;;;1.67;1.57;;;7.60;99.90;;;;;;468868;253;28102;-73
2023/10/25 00:26:53;;;;;;;2.83;1.80;;;7.50;99.90;;;;;;468889;253;28037;-73
2023/10/25 00:28:54;;;;;;;1.90;1.50;;;7.50;99.90;;;;;;468913;249;27982;-73
2023/10/25 00:30:55;;;;;;;1.70;1.60;;;7.60;99.90;;;;;;468955;253;27921;-73
2023/10/25 00:32:56;;;;;;;1.80;1.70;;;7.70;99.90;;;;;;468957;253;28262;-74
2023/10/25 00:34:58;;;;;;;1.63;1.50;;;7.70;99.90;;;;;;468913;253;27895;-73
2023/10/25 00:36:59;;;;;;;1.50;1.40;;;7.70;99.90;;;;;;468890;253;28188;-73
2023/10/25 00:39:00;;;;;;;1.83;1.73;;;7.80;99.90;;;;;;468875;253;28861;-73
2023/10/25 00:41:01;;;;;;;4.30;1.83;;;7.80;99.90;;;;;;468970;253;28547;-72
2023/10/25 00:43:03;;;;;;;1.73;1.30;;;7.80;99.90;;;;;;468914;253;28506;-73
2023/10/25 00:45:04;;;;;;;2.40;1.60;;;7.80;99.90;;;;;;468905;253;28462;-73
2023/10/25 00:47:05;;;;;;;1.60;1.50;;;7.80;99.90;;;;;;468866;253;27663;-73
2023/10/25 00:49:07;;;;;;;1.50;1.40;;;7.80;99.90;;;;;;468895;253;28064;-73
2023/10/25 00:51:08;;;;;;;2.07;1.97;;;7.80;99.90;;;;;;468925;253;27825;-73
2023/10/25 00:53:10;;;;;;;1.70;1.60;;;7.80;99.90;;;;;;468910;253;28006;-74
2023/10/25 00:55:10;;;;;;;2.43;1.60;;;7.80;99.90;;;;;;468917;253;27872;-73
2023/10/25 00:57:11;;;;;;;4.73;1.80;;;7.80;99.90;;;;;;468930;253;27991;-73
2023/10/25 00:59:13;;;;;;;2.70;1.50;;;7.70;99.90;;;;;;468970;253;28089;-75
2023/10/25 01:01:14;;;;;;;2.90;1.67;;;7.70;99.90;;;;;;468946;253;28055;-73
2023/10/25 01:03:15;;;;;;;1.77;1.10;;;7.70;99.90;;;;;;468950;253;27999;-73
2023/10/25 01:05:16;;;;;;;1.60;1.50;;;7.70;99.90;;;;;;468942;253;27664;-73
2023/10/25 01:07:18;;;;;;;1.73;1.43;;;7.70;99.90;;;;;;468937;253;27924;-73
2023/10/25 01:09:19;;;;;;;1.77;1.40;;;7.70;99.90;;;;;;468931;253;27947;-73
2023/10/25 01:11:20;;;;;;;1.53;1.37;;;7.70;99.90;;;;;;468931;253;28000;-74
2023/10/25 01:13:24;;;;;;;1.37;1.30;;;7.70;99.90;;;;;;468948;253;28030;-73
2023/10/25 01:15:26;;;;;;;1.73;1.63;;;7.70;99.90;;;;;;468954;253;28047;-73
2023/10/25 01:17:27;;;;;;;1.47;1.37;;;7.70;99.90;;;;;;468943;253;28158;-73
2023/10/25 01:19:28;;;;;;;2.70;1.53;;;7.60;99.90;;;;;;468933;253;28073;-73
2023/10/25 01:21:29;;;;;;;1.70;1.60;;;7.70;99.90;;;;;;468934;253;28119;-74
2023/10/25 01:23:31;;;;;;;1.50;1.40;;;7.70;99.90;;;;;;468902;253;27992;-72
2023/10/25 01:25:32;;;;;;;1.50;1.40;;;7.70;99.90;;;;;;468794;253;27983;-74
2023/10/25 01:27:33;;;;;;;1.50;1.27;;;7.70;99.90;;;;;;468944;253;28515;-74
2023/10/25 01:29:34;;;;;;;1.30;1.20;;;7.70;99.90;;;;;;468940;253;28718;-73
2023/10/25 01:31:36;;;;;;;3.07;1.77;;;7.70;99.90;;;;;;468946;253;28138;-73
2023/10/25 01:33:37;;;;;;;2.10;1.40;;;7.70;99.90;;;;;;468928;253;28585;-73
2023/10/25 01:35:38;;;;;;;1.83;1.73;;;7.60;99.90;;;;;;468872;253;28540;-70
2023/10/25 01:37:39;;;;;;;1.30;1.20;;;7.50;99.90;;;;;;468905;253;28397;-73
2023/10/25 01:39:41;;;;;;;3.27;1.90;;;7.60;99.90;;;;;;468921;253;27735;-73
2023/10/25 01:41:42;;;;;;;1.50;1.40;;;7.50;99.90;;;;;;468803;253;28019;-73
2023/10/25 01:43:43;;;;;;;1.80;1.70;;;7.60;99.90;;;;;;468935;253;28060;-74
2023/10/25 01:45:44;;;;;;;1.40;1.30;;;7.60;99.90;;;;;;468943;253;27645;-72
2023/10/25 01:47:46;;;;;;;1.83;1.40;;;7.60;99.90;;;;;;468923;253;27975;-73
2023/10/25 01:49:47;;;;;;;1.50;1.40;;;7.50;99.90;;;;;;468947;249;28143;-73
2023/10/25 01:51:48;;;;;;;1.60;1.50;;;7.50;99.90;;;;;;468902;253;28164;-73
2023/10/25 01:53:49;;;;;;;2.23;2.00;;;7.50;99.90;;;;;;468986;253;28261;-72
2023/10/25 01:55:52;;;;;;;3.30;2.10;;;7.50;99.90;;;;;;468899;253;27974;-73
2023/10/25 01:57:52;;;;;;;1.97;1.70;;;7.50;99.90;;;;;;468856;253;27671;-73
2023/10/25 01:59:53;;;;;;;3.60;2.07;;;7.50;99.90;;;;;;468901;253;28071;-73
2023/10/25 02:01:54;;;;;;;3.87;2.40;;;7.50;99.90;;;;;;468903;253;27994;-73
2023/10/25 02:03:56;;;;;;;3.17;2.10;;;7.50;99.90;;;;;;468916;253;27791;-74
2023/10/25 02:05:57;;;;;;;6.00;1.93;;;7.50;99.90;;;;;;468900;253;28658;-72
2023/10/25 02:07:58;;;;;;;3.73;1.90;;;7.50;99.90;;;;;;468904;253;28244;-72
2023/10/25 02:09:59;;;;;;;3.87;1.97;;;7.50;99.90;;;;;;468907;253;28604;-73
2023/10/25 02:12:01;;;;;;;3.23;2.10;;;7.50;99.90;;;;;;468994;253;28607;-72
2023/10/25 02:14:02;;;;;;;2.80;1.77;;;7.50;99.90;;;;;;468946;253;28604;-73
2023/10/25 02:16:03;;;;;;;3.60;1.60;;;7.50;99.90;;;;;;468949;253;27976;-72
2023/10/25 02:18:04;;;;;;;4.70;1.50;;;7.50;99.90;;;;;;468967;253;28148;-72
2023/10/25 02:20:06;;;;;;;1.87;1.70;;;7.50;99.90;;;;;;468937;253;28120;-73
2023/10/25 02:22:07;;;;;;;5.83;2.53;;;7.40;99.90;;;;;;468918;253;28044;-72
2023/10/25 02:24:10;;;;;;;4.33;2.00;;;7.40;99.90;;;;;;468911;249;28230;-72
2023/10/25 02:26:09;;;;;;;3.07;1.70;;;7.40;99.90;;;;;;468856;253;27620;-73
2023/10/25 02:28:12;;;;;;;7.00;1.60;;;7.40;99.90;;;;;;468900;249;28936;-73
2023/10/25 02:30:12;;;;;;;1.43;1.27;;;7.40;99.90;;;;;;468912;249;28932;-73
2023/10/25 02:32:13;;;;;;;3.60;1.77;;;7.40;99.90;;;;;;468921;253;28655;-73
2023/10/25 02:34:14;;;;;;;1.50;1.40;;;7.40;99.90;;;;;;468910;253;28231;-73
2023/10/25 02:36:16;;;;;;;3.00;1.40;;;7.40;99.90;;;;;;468764;253;27988;-73
2023/10/25 02:38:17;;;;;;;1.33;1.30;;;7.30;99.90;;;;;;468945;253;27926;-73
2023/10/25 02:40:18;;;;;;;4.93;1.73;;;7.30;99.90;;;;;;468926;253;27676;-74
2023/10/25 02:42:19;;;;;;;3.50;1.50;;;7.30;99.90;;;;;;468906;253;28010;-72
2023/10/25 02:44:21;;;;;;;1.40;1.30;;;7.20;99.90;;;;;;468955;253;28578;-72
2023/10/25 02:46:22;;;;;;;3.17;1.57;;;7.20;99.90;;;;;;468975;253;28816;-73
2023/10/25 02:48:23;;;;;;;1.50;1.40;;;7.20;99.90;;;;;;468951;253;28509;-72
2023/10/25 02:50:24;;;;;;;1.60;1.50;;;7.20;99.90;;;;;;468939;253;28304;-73
2023/10/25 02:52:26;;;;;;;3.53;1.80;;;7.10;99.90;;;;;;468912;253;28312;-72
2023/10/25 02:54:27;;;;;;;1.30;1.10;;;7.10;99.90;;;;;;468909;253;28655;-73
2023/10/25 02:56:28;;;;;;;1.50;1.10;;;7.10;99.90;;;;;;468942;249;28248;-74
2023/10/25 02:58:29;;;;;;;1.57;1.47;;;7.10;99.90;;;;;;468890;253;27837;-72
2023/10/25 03:00:31;;;;;;;4.00;1.92;;;7.10;99.90;;;;;;468909;253;28244;-73
2023/10/25 03:02:32;;;;;;;3.53;1.40;;;7.00;99.90;;;;;;468895;253;27603;-73
2023/10/25 03:04:33;;;;;;;1.62;1.52;;;7.10;99.90;;;;;;468876;253;27790;-72
2023/10/25 03:06:34;;;;;;;1.40;1.30;;;7.10;99.90;;;;;;468917;253;27632;-74
2023/10/25 03:08:36;;;;;;;1.33;1.23;;;7.00;99.90;;;;;;468904;253;28798;-73
2023/10/25 03:10:37;;;;;;;1.23;0.98;;;7.00;99.90;;;;;;468953;253;28471;-72
2023/10/25 03:12:38;;;;;;;1.57;1.40;;;7.00;99.90;;;;;;468985;253;27978;-73
2023/10/25 03:14:39;;;;;;;2.37;1.30;;;7.00;99.90;;;;;;468944;253;28349;-73
2023/10/25 03:16:41;;;;;;;1.35;1.30;;;7.00;99.90;;;;;;468926;253;29126;-74
2023/10/25 03:18:42;;;;;;;1.80;1.30;;;7.00;99.90;;;;;;468965;253;27598;-72
2023/10/25 03:20:43;;;;;;;2.43;1.30;;;7.00;99.90;;;;;;468961;253;28042;-72
2023/10/25 03:22:45;;;;;;;2.13;1.93;;;6.90;99.90;;;;;;468960;253;28356;-72
2023/10/25 03:24:46;;;;;;;1.47;1.33;;;6.90;99.90;;;;;;468925;253;28071;-73
2023/10/25 03:26:47;;;;;;;1.10;1.10;;;6.90;99.90;;;;;;468825;249;28748;-73
2023/10/25 03:28:48;;;;;;;1.30;1.20;;;6.90;99.90;;;;;;468908;253;27937;-72
2023/10/25 03:30:49;;;;;;;1.30;1.20;;;6.90;99.90;;;;;;468903;253;28223;-72
2023/10/25 03:32:51;;;;;;;3.57;1.53;;;6.90;99.90;;;;;;468883;253;28278;-73
2023/10/25 03:34:52;;;;;;;2.03;1.17;;;6.80;99.90;;;;;;468714;253;28699;-73
2023/10/25 03:36:53;;;;;;;1.15;1.15;;;6.90;99.90;;;;;;468869;253;28036;-73
2023/10/25 03:38:54;;;;;;;1.40;1.30;;;6.80;99.90;;;;;;468917;253;28069;-73
2023/10/25 03:40:56;;;;;;;2.63;1.23;;;6.80;99.90;;;;;;468872;251;28133;-72
2023/10/25 03:42:57;;;;;;;2.83;1.53;;;6.90;99.90;;;;;;468944;253;28605;-74
2023/10/25 03:44:59;;;;;;;1.30;1.17;;;6.80;99.90;;;;;;468910;253;28103;-72
2023/10/25 03:46:59;;;;;;;1.30;1.20;;;6.90;99.90;;;;;;468911;253;28556;-73
2023/10/25 03:49:01;;;;;;;1.45;1.35;;;6.80;99.90;;;;;;468894;253;28320;-72
2023/10/25 03:51:02;;;;;;;1.97;1.67;;;6.80;99.90;;;;;;468910;253;27595;-73
2023/10/25 03:53:03;;;;;;;2.30;1.30;;;6.80;99.90;;;;;;468934;253;28930;-73
2023/10/25 03:55:04;;;;;;;1.17;1.13;;;6.70;99.90;;;;;;468926;253;28558;-72
2023/10/25 03:57:06;;;;;;;1.43;1.20;;;6.70;99.90;;;;;;468954;253;28165;-72
2023/10/25 03:59:07;;;;;;;3.47;1.10;;;6.70;99.90;;;;;;468980;253;28152;-72
2023/10/25 04:01:08;;;;;;;2.33;1.40;;;6.70;99.90;;;;;;468987;253;28648;-73
2023/10/25 04:03:09;;;;;;;1.25;1.12;;;6.60;99.90;;;;;;468963;253;28580;-74
2023/10/25 04:05:11;;;;;;;1.60;1.50;;;6.60;99.90;;;;;;468947;253;27963;-72
2023/10/25 04:07:12;;;;;;;2.37;1.42;;;6.60;99.90;;;;;;468921;253;27554;-72
2023/10/25 04:09:13;;;;;;;1.12;1.08;;;6.60;99.90;;;;;;468970;253;27562;-72
2023/10/25 04:11:15;;;;;;;1.37;1.27;;;6.60;99.90;;;;;;468903;249;27509;-73
2023/10/25 04:13:16;;;;;;;1.40;1.30;;;6.60;99.90;;;;;;468910;253;28889;-73
2023/10/25 04:15:17;;;;;;;1.40;1.33;;;6.50;99.90;;;;;;468940;253;27629;-72
2023/10/25 04:17:18;;;;;;;2.35;1.20;;;6.60;99.90;;;;;;468948;253;28041;-72
2023/10/25 04:19:20;;;;;;;1.10;1.10;;;6.60;99.90;;;;;;468972;253;28041;-73
2023/10/25 04:21:21;;;;;;;1.50;1.40;;;6.50;99.90;;;;;;468947;253;27508;-73
2023/10/25 04:23:22;;;;;;;1.87;1.40;;;6.60;99.90;;;;;;468930;253;27565;-72
2023/10/25 04:25:23;;;;;;;3.03;1.60;;;6.60;99.90;;;;;;468962;253;27527;-72
2023/10/25 04:27:25;;;;;;;1.40;1.30;;;6.60;99.90;;;;;;468992;253;27511;-72
2023/10/25 04:29:26;;;;;;;2.10;1.55;;;6.60;99.90;;;;;;468948;253;27593;-73
2023/10/25 04:31:27;;;;;;;1.80;1.50;;;6.60;99.90;;;;;;468902;253;28019;-72
2023/10/25 04:33:28;;;;;;;2.00;1.90;;;6.60;99.90;;;;;;468889;253;28110;-72
2023/10/25 04:35:30;;;;;;;1.53;1.43;;;6.70;99.90;;;;;;468952;253;27561;-73
2023/10/25 04:37:31;;;;;;;3.10;2.30;;;6.70;99.90;;;;;;468946;253;28857;-72
2023/10/25 04:39:32;;;;;;;2.50;2.30;;;6.70;99.90;;;;;;468966;253;27593;-72
2023/10/25 04:41:33;;;;;;;2.87;2.67;;;6.80;99.90;;;;;;468941;253;27526;-72
2023/10/25 04:43:35;;;;;;;3.87;2.47;;;6.80;99.90;;;;;;468921;253;27550;-72
2023/10/25 04:45:36;;;;;;;4.45;3.60;;;6.80;99.90;;;;;;468965;253;29475;-73
2023/10/25 04:47:37;;;;;;;3.65;2.30;;;6.80;99.90;;;;;;468889;253;28014;-72
2023/10/25 04:49:38;;;;;;;2.93;2.47;;;6.90;99.90;;;;;;468862;253;27562;-73
2023/10/25 04:51:41;;;;;;;4.25;2.40;;;6.90;99.90;;;;;;468882;253;28499;-73
2023/10/25 04:53:41;;;;;;;3.43;2.63;;;6.90;99.90;;;;;;468932;253;27519;-72
2023/10/25 04:55:42;;;;;;;6.37;4.25;;;6.90;99.90;;;;;;468922;253;28989;-73
2023/10/25 04:57:43;;;;;;;3.30;3.00;;;7.00;99.90;;;;;;468905;253;27606;-72
2023/10/25 04:59:45;;;;;;;3.07;2.77;;;7.00;99.90;;;;;;468905;253;27643;-73
2023/10/25 05:01:46;;;;;;;3.40;3.10;;;7.00;99.90;;;;;;468895;253;29442;-74
2023/10/25 05:03:47;;;;;;;4.00;3.60;;;7.00;99.90;;;;;;468921;253;29765;-72
2023/10/25 05:05:49;;;;;;;4.20;3.58;;;7.10;99.90;;;;;;468935;253;27555;-72
2023/10/25 05:07:50;;;;;;;5.80;3.35;;;7.20;99.90;;;;;;468914;253;27507;-72
2023/10/25 05:09:51;;;;;;;6.10;4.77;;;7.20;99.90;;;;;;468901;253;27556;-72
2023/10/25 05:11:52;;;;;;;3.83;3.40;;;7.30;99.90;;;;;;468968;253;29031;-73
2023/10/25 05:13:54;;;;;;;5.50;3.70;;;7.30;99.90;;;;;;468966;253;27585;-72
2023/10/25 05:15:55;;;;;;;5.63;4.40;;;7.30;99.90;;;;;;468948;253;28917;-73
2023/10/25 05:17:56;;;;;;;6.70;4.57;;;7.40;99.90;;;;;;468946;253;28121;-73
2023/10/25 05:19:57;;;;;;;4.67;3.70;;;7.40;99.90;;;;;;468886;253;29566;-72
2023/10/25 05:21:59;;;;;;;9.57;6.30;;;7.40;99.90;;;;;;468951;253;28162;-73
2023/10/25 05:24:00;;;;;;;7.47;5.10;;;7.50;99.90;;;;;;468887;253;28569;-72
2023/10/25 05:26:01;;;;;;;8.57;6.17;;;7.50;99.90;;;;;;468884;253;28451;-72
2023/10/25 05:28:02;;;;;;;9.70;6.70;;;7.60;99.90;;;;;;468871;251;28475;-72
2023/10/25 05:30:04;;;;;;;9.50;6.63;;;7.60;99.90;;;;;;468919;253;27872;-72
2023/10/25 05:32:05;;;;;;;6.90;5.77;;;7.70;99.90;;;;;;468922;253;28034;-73
2023/10/25 05:34:06;;;;;;;5.10;4.60;;;7.60;99.90;;;;;;468899;253;28067;-72
2023/10/25 05:36:07;;;;;;;5.83;4.93;;;7.70;99.90;;;;;;468905;252;27952;-72
2023/10/25 05:38:08;;;;;;;8.80;5.00;;;7.70;99.90;;;;;;468927;253;27931;-73
2023/10/25 05:40:10;;;;;;;5.27;4.77;;;7.70;99.90;;;;;;468929;253;28007;-72
2023/10/25 05:42:11;;;;;;;7.20;4.80;;;7.70;99.90;;;;;;468882;253;28054;-73
2023/10/25 05:44:12;;;;;;;4.37;3.67;;;7.70;99.90;;;;;;468893;253;28010;-73
2023/10/25 05:46:13;;;;;;;4.37;3.97;;;7.70;99.90;;;;;;468893;253;27778;-73
2023/10/25 05:48:15;;;;;;;5.70;5.00;;;7.70;99.90;;;;;;468909;251;28117;-73
2023/10/25 05:50:16;;;;;;;5.33;4.33;;;7.80;99.90;;;;;;468920;253;28092;-73
2023/10/25 05:52:17;;;;;;;6.20;4.70;;;7.80;99.90;;;;;;468916;253;27901;-73
2023/10/25 05:54:18;;;;;;;4.53;4.10;;;7.80;99.90;;;;;;468900;253;28089;-73
2023/10/25 05:56:25;;;;;;;6.10;4.97;;;7.80;99.90;;;;;;468915;253;27986;-73
2023/10/25 05:58:21;;;;;;;7.43;6.40;;;7.80;99.90;;;;;;468807;253;28404;-73
2023/10/25 06:00:22;;;;;;;8.17;6.87;;;7.90;99.90;;;;;;468902;253;28441;-73
2023/10/25 06:02:23;;;;;;;9.43;7.17;;;7.90;99.90;;;;;;468893;253;28572;-72
2023/10/25 06:04:25;;;;;;;8.00;5.77;;;8.00;99.90;;;;;;468911;253;28665;-73
2023/10/25 06:06:26;;;;;;;6.57;5.40;;;7.90;99.90;;;;;;468983;253;28460;-73
2023/10/25 06:08:27;;;;;;;6.53;5.00;;;7.90;99.90;;;;;;468961;253;28170;-73
2023/10/25 06:10:28;;;;;;;10.33;7.20;;;7.90;99.90;;;;;;468885;253;27889;-73
2023/10/25 06:12:30;;;;;;;10.03;6.30;;;8.00;99.90;;;;;;468943;249;28214;-73
2023/10/25 06:14:31;;;;;;;6.30;5.60;;;8.00;99.90;;;;;;468973;253;27819;-73
2023/10/25 06:16:32;;;;;;;8.73;6.40;;;8.00;99.90;;;;;;468901;253;27860;-73
2023/10/25 06:18:33;;;;;;;6.43;5.83;;;8.10;99.90;;;;;;468877;253;27565;-74
2023/10/25 06:20:35;;;;;;;4.57;4.17;;;8.10;99.90;;;;;;468898;253;27750;-72
2023/10/25 06:22:36;;;;;;;4.80;4.40;;;8.10;99.90;;;;;;468908;253;28034;-72
2023/10/25 06:24:39;;;;;;;7.23;5.93;;;8.10;99.90;;;;;;468937;253;27786;-73
2023/10/25 06:26:41;;;;;;;9.33;7.20;;;8.10;99.90;;;;;;468890;253;27997;-73
2023/10/25 06:28:41;;;;;;;6.10;5.30;;;8.20;99.90;;;;;;468711;253;28092;-73
2023/10/25 06:30:45;;;;;;;6.50;5.53;;;8.20;99.90;;;;;;468758;253;28203;-72
2023/10/25 06:32:44;;;;;;;7.40;6.03;;;8.10;99.90;;;;;;468841;253;28270;-73
2023/10/25 06:34:45;;;;;;;5.80;5.30;;;8.20;99.90;;;;;;468881;253;29296;-74
2023/10/25 06:36:47;;;;;;;8.23;6.03;;;8.20;99.90;;;;;;468898;253;28503;-73
2023/10/25 06:38:48;;;;;;;6.17;4.63;;;8.20;99.90;;;;;;468885;253;28519;-73
2023/10/25 06:40:49;;;;;;;4.50;4.10;;;8.20;99.90;;;;;;468924;253;28635;-73
2023/10/25 06:42:50;;;;;;;5.77;5.03;;;8.30;99.90;;;;;;468914;253;28532;-73
2023/10/25 06:44:51;;;;;;;5.07;4.57;;;8.40;99.90;;;;;;468933;253;28033;-73
2023/10/25 06:46:53;;;;;;;5.60;4.70;;;8.40;99.90;;;;;;468916;253;28240;-72
2023/10/25 06:48:56;;;;;;;7.73;5.50;;;8.40;99.90;;;;;;468884;253;27672;-73
2023/10/25 06:50:55;;;;;;;6.83;6.00;;;8.50;99.90;;;;;;468848;253;27865;-72
2023/10/25 06:52:56;;;;;;;6.73;5.00;;;8.50;99.90;;;;;;468865;253;28037;-72
2023/10/25 06:54:58;;;;;;;6.60;4.40;;;8.60;99.90;;;;;;468915;253;27872;-74
2023/10/25 06:56:59;;;;;;;6.70;5.60;;;8.60;99.90;;;;;;468893;249;28006;-73
2023/10/25 06:59:00;;;;;;;4.53;4.10;;;8.70;99.90;;;;;;468878;249;28039;-73
2023/10/25 07:01:01;;;;;;;7.43;6.00;;;8.70;99.90;;;;;;468887;253;27721;-73
2023/10/25 07:03:03;;;;;;;4.97;4.17;;;8.80;99.90;;;;;;468897;253;28113;-73
2023/10/25 07:05:04;;;;;;;8.43;5.70;;;8.80;99.90;;;;;;468874;253;28006;-73
2023/10/25 07:07:05;;;;;;;5.03;4.10;;;8.90;99.90;;;;;;468916;253;27741;-73
2023/10/25 07:09:06;;;;;;;6.40;5.07;;;8.90;99.90;;;;;;468893;253;28029;-73
2023/10/25 07:11:08;;;;;;;4.77;4.37;;;8.90;99.90;;;;;;468900;253;28582;-73
2023/10/25 07:13:09;;;;;;;4.40;4.00;;;9.00;99.90;;;;;;468900;253;28756;-73
2023/10/25 07:15:11;;;;;;;4.20;3.90;;;9.10;99.90;;;;;;468921;253;28208;-73
2023/10/25 07:17:11;;;;;;;3.80;3.40;;;9.10;99.90;;;;;;468900;253;28317;-72
2023/10/25 07:19:13;;;;;;;4.33;3.43;;;9.10;99.90;;;;;;468943;253;28631;-73
2023/10/25 07:21:14;;;;;;;3.70;3.40;;;9.30;99.90;;;;;;468927;253;28769;-74
2023/10/25 07:23:15;;;;;;;4.47;4.07;;;9.30;99.90;;;;;;468955;253;27965;-73
2023/10/25 07:25:16;;;;;;;5.93;4.20;;;9.30;99.90;;;;;;468929;253;28032;-74
2023/10/25 07:27:18;;;;;;;4.37;3.80;;;9.30;99.90;;;;;;468939;253;27779;-72
2023/10/25 07:29:19;;;;;;;3.23;2.93;;;9.40;99.90;;;;;;468961;253;27662;-73
2023/10/25 07:31:20;;;;;;;3.27;3.07;;;9.50;99.90;;;;;;468928;253;27597;-74
2023/10/25 07:33:22;;;;;;;3.87;3.50;;;9.50;99.90;;;;;;468965;253;28174;-73
2023/10/25 07:35:23;;;;;;;3.97;3.67;;;9.60;99.90;;;;;;468932;253;28051;-73
2023/10/25 07:37:24;;;;;;;3.60;3.30;;;9.50;99.90;;;;;;468947;253;27761;-73
2023/10/25 07:39:25;;;;;;;2.80;2.60;;;9.60;99.90;;;;;;468881;249;27860;-73
2023/10/25 07:41:26;;;;;;;4.10;3.07;;;9.60;99.90;;;;;;468900;253;27654;-73
2023/10/25 07:43:28;;;;;;;3.27;2.90;;;9.60;99.90;;;;;;468915;253;27515;-72
2023/10/25 07:45:29;;;;;;;3.07;2.63;;;9.70;99.90;;;;;;468774;253;28052;-73
2023/10/25 07:47:30;;;;;;;4.07;3.67;;;9.70;99.90;;;;;;468890;253;27893;-73
2023/10/25 07:49:31;;;;;;;3.50;3.07;;;9.80;99.90;;;;;;468925;253;28049;-73
2023/10/25 07:51:33;;;;;;;3.10;2.80;;;9.80;99.90;;;;;;468912;253;28448;-73
2023/10/25 07:53:34;;;;;;;2.93;2.57;;;9.80;99.90;;;;;;468936;253;28421;-73
2023/10/25 07:55:35;;;;;;;2.80;2.60;;;9.90;99.90;;;;;;468912;253;28040;-73
2023/10/25 07:57:36;;;;;;;2.90;2.60;;;9.90;99.90;;;;;;468945;253;28713;-73
2023/10/25 07:59:38;;;;;;;2.50;2.30;;;9.90;99.90;;;;;;468940;253;28417;-73
2023/10/25 08:01:39;;;;;;;2.27;2.17;;;10.00;99.90;;;;;;468957;253;27807;-73
2023/10/25 08:03:40;;;;;;;2.40;1.97;;;10.00;99.90;;;;;;468954;253;27767;-73
2023/10/25 08:05:41;;;;;;;2.97;2.00;;;10.00;99.90;;;;;;468906;253;27906;-74
2023/10/25 08:07:43;;;;;;;2.37;2.23;;;10.00;99.90;;;;;;468948;253;28039;-75
2023/10/25 08:09:46;;;;;;;2.10;2.00;;;10.00;99.90;;;;;;468734;253;28017;-73
2023/10/25 08:11:45;;;;;;;3.73;2.43;;;10.00;99.90;;;;;;468860;253;27655;-73
2023/10/25 08:13:46;;;;;;;2.00;1.90;;;10.00;99.90;;;;;;468932;253;28084;-73
2023/10/25 08:15:48;;;;;;;2.00;1.90;;;10.00;99.90;;;;;;468916;253;27777;-73
2023/10/25 08:17:49;;;;;;;2.00;1.90;;;10.00;99.90;;;;;;468904;253;28433;-73
2023/10/25 08:19:50;;;;;;;1.83;1.73;;;10.00;99.90;;;;;;468920;253;28474;-73
2023/10/25 08:21:52;;;;;;;2.53;1.87;;;10.00;99.90;;;;;;468975;253;27865;-73
2023/10/25 08:23:55;;;;;;;6.27;2.20;;;10.00;99.90;;;;;;468978;253;27870;-73
2023/10/25 08:25:55;;;;;;;2.87;2.17;;;10.00;99.90;;;;;;468907;253;27775;-74
2023/10/25 08:27:56;;;;;;;1.87;1.77;;;10.00;99.90;;;;;;468942;253;28390;-74
2023/10/25 08:29:59;;;;;;;3.83;1.87;;;10.00;99.90;;;;;;468928;253;28152;-73
2023/10/25 08:32:00;;;;;;;1.53;1.43;;;10.00;99.90;;;;;;468797;253;28037;-73
2023/10/25 08:34:01;;;;;;;2.87;1.70;;;10.00;99.90;;;;;;468888;253;28111;-73
2023/10/25 08:36:02;;;;;;;1.73;1.50;;;10.00;99.90;;;;;;468848;253;28312;-73
2023/10/25 08:38:04;;;;;;;1.80;1.70;;;10.00;99.90;;;;;;468887;253;28417;-73
2023/10/25 08:40:05;;;;;;;1.90;1.80;;;10.00;99.90;;;;;;468868;253;28687;-73
2023/10/25 08:42:06;;;;;;;1.53;1.43;;;10.00;99.90;;;;;;468970;250;28054;-73
2023/10/25 08:44:08;;;;;;;1.60;1.50;;;10.00;99.90;;;;;;468919;253;28032;-74
2023/10/25 08:46:09;;;;;;;1.73;1.63;;;10.10;99.90;;;;;;468928;253;27994;-72
2023/10/25 08:48:10;;;;;;;1.43;1.30;;;10.10;99.90;;;;;;468902;251;28094;-74
2023/10/25 08:50:19;;;;;;;4.90;1.80;;;10.20;99.90;;;;;;468959;253;28051;-75
2023/10/25 08:52:12;;;;;;;2.00;1.23;;;10.20;99.90;;;;;;468825;253;27986;-73
2023/10/25 08:54:14;;;;;;;1.60;1.50;;;10.20;99.90;;;;;;468955;253;28028;-73
2023/10/25 08:56:15;;;;;;;2.67;1.87;;;10.20;99.90;;;;;;468944;253;28092;-73
2023/10/25 08:58:17;;;;;;;1.80;1.70;;;10.20;99.90;;;;;;468907;253;28044;-73
2023/10/25 09:00:17;;;;;;;1.70;1.60;;;10.20;99.90;;;;;;468958;253;28561;-74
2023/10/25 09:02:19;;;;;;;1.60;1.50;;;10.20;99.90;;;;;;468922;253;28417;-73
2023/10/25 09:04:20;;;;;;;1.83;1.63;;;10.20;99.90;;;;;;468931;253;29411;-73
2023/10/25 09:06:21;;;;;;;1.90;1.67;;;10.20;99.90;;;;;;468944;253;29103;-73
2023/10/25 09:08:26;;;;;;;1.50;1.47;;;10.20;99.90;;;;;;468741;253;27905;-73
2023/10/25 09:10:24;;;;;;;1.40;1.30;;;10.10;99.90;;;;;;468767;253;28071;-74
2023/10/25 09:12:25;;;;;;;2.80;1.60;;;10.10;99.90;;;;;;468917;253;28162;-73
2023/10/25 09:14:26;;;;;;;1.60;1.50;;;10.10;99.90;;;;;;468916;253;28047;-73
2023/10/25 09:16:27;;;;;;;1.60;1.50;;;10.10;99.90;;;;;;468972;253;28460;-74
2023/10/25 09:18:29;;;;;;;1.60;1.50;;;10.10;99.90;;;;;;468924;253;27867;-73
2023/10/25 09:20:30;;;;;;;1.50;1.40;;;10.10;99.90;;;;;;468888;253;28005;-73
2023/10/25 09:22:31;;;;;;;1.50;1.40;;;10.10;99.90;;;;;;468939;253;27848;-73
2023/10/25 09:24:32;;;;;;;1.30;1.20;;;10.10;99.90;;;;;;468943;253;28439;-74
2023/10/25 09:26:34;;;;;;;1.50;1.40;;;10.00;99.90;;;;;;468963;253;28578;-74
2023/10/25 09:28:35;;;;;;;1.57;1.47;;;10.00;99.90;;;;;;468925;253;28356;-72
2023/10/25 09:30:36;;;;;;;1.70;1.60;;;10.00;99.90;;;;;;468890;253;28350;-73
2023/10/25 09:32:37;;;;;;;1.53;1.43;;;10.00;99.90;;;;;;468876;253;27836;-73
2023/10/25 09:34:39;;;;;;;1.70;1.60;;;9.90;99.90;;;;;;468909;253;27967;-72
2023/10/25 09:36:40;;;;;;;2.20;1.83;;;10.00;99.90;;;;;;468926;253;28117;-73
2023/10/25 09:38:41;;;;;;;2.80;1.67;;;10.00;99.90;;;;;;468901;253;28060;-73
2023/10/25 09:40:43;;;;;;;1.70;1.60;;;9.90;99.90;;;;;;468925;253;28138;-73
2023/10/25 09:42:48;;;;;;;1.73;1.60;;;10.00;99.90;;;;;;468946;253;28168;-73
2023/10/25 09:44:54;;;;;;;1.70;1.60;;;10.00;99.90;;;;;;468868;253;28069;-73
2023/10/25 09:46:55;;;;;;;3.03;1.50;;;10.00;99.90;;;;;;468888;253;28523;-73
2023/10/25 09:48:56;;;;;;;1.50;1.40;;;10.00;99.90;;;;;;468957;253;28379;-75
2023/10/25 09:50:58;;;;;;;1.93;1.80;;;10.10;99.90;;;;;;468984;249;27966;-73
2023/10/25 09:52:58;;;;;;;2.60;1.63;;;10.10;99.90;;;;;;468896;253;28069;-73
2023/10/25 09:55:00;;;;;;;2.07;1.87;;;10.10;99.90;;;;;;468946;253;27933;-73
2023/10/25 09:57:05;;;;;;;2.00;1.70;;;10.20;99.90;;;;;;468914;253;27685;-73
2023/10/25 09:59:02;;;;;;;1.93;1.63;;;10.20;99.90;;;;;;468695;253;27836;-74
2023/10/25 10:01:05;;;;;;;1.87;1.47;;;10.20;99.90;;;;;;468896;253;28290;-72
2023/10/25 10:03:05;;;;;;;3.60;1.60;;;10.20;99.90;;;;;;468883;253;28494;-73
2023/10/25 10:05:06;;;;;;;2.10;1.53;;;10.20;99.90;;;;;;468935;253;29254;-74
2023/10/25 10:07:07;;;;;;;1.73;1.63;;;10.20;99.90;;;;;;468927;253;27961;-73
2023/10/25 10:09:08;;;;;;;1.60;1.50;;;10.20;99.90;;;;;;468965;253;28018;-73
2023/10/25 10:11:10;;;;;;;1.50;1.40;;;10.10;99.90;;;;;;468949;253;28088;-72
2023/10/25 10:13:11;;;;;;;1.87;1.40;;;10.10;99.90;;;;;;468848;253;27998;-73
2023/10/25 10:15:14;;;;;;;2.40;1.50;;;10.20;99.90;;;;;;468856;253;28561;-73
2023/10/25 10:17:17;;;;;;;1.50;1.40;;;10.20;99.90;;;;;;468855;253;27829;-73
2023/10/25 10:19:18;;;;;;;1.57;1.40;;;10.30;99.90;;;;;;468882;253;28000;-78
2023/10/25 10:21:20;;;;;;;1.70;1.50;;;10.40;99.90;;;;;;468898;253;27788;-74
2023/10/25 10:23:20;;;;;;;1.37;1.20;;;10.40;99.90;;;;;;468885;253;28175;-73
2023/10/25 10:25:21;;;;;;;1.70;1.40;;;10.40;99.90;;;;;;468909;253;27956;-73
2023/10/25 10:27:23;;;;;;;1.67;1.57;;;10.40;99.90;;;;;;468883;253;28076;-74
2023/10/25 10:29:24;;;;;;;1.20;1.20;;;10.40;99.90;;;;;;468902;253;28122;-73
2023/10/25 10:31:25;;;;;;;1.27;1.27;;;10.50;99.90;;;;;;468894;253;28030;-73
2023/10/25 10:33:26;;;;;;;1.60;1.50;;;10.50;99.90;;;;;;468894;253;28564;-73
2023/10/25 10:35:28;;;;;;;1.73;1.40;;;10.50;99.90;;;;;;468913;253;28577;-73
2023/10/25 10:37:32;;;;;;;2.10;1.53;;;10.50;99.90;;;;;;468870;253;28511;-73